Hlavní strana
METAR-TAF:

METAR-TAF

Letiště :

Vardø, Norsko

zeměpisná šířka: 70-21N, zeměpisná délka: 031-03E, výška: 12 m

Aktuální stav počasí

Zpráva byla vytvořena před 4 hodinami a 42 minutami, v 20:20 UTC
Východní vítr 28 kt
Teplota 3°C
Vlhkost vzduchu 81%
Tlak 990 hPa
Viditelnost: 8000 m
Polojasno ve výšce 1200 ft
Oblačno až skoro zataženo ve výšce 3300 ft
slabé sněhové přeháňky, déšť

METAR: ENSS 212020Z 09028KT 8000 -SHSNRA SCT012 BKN033 03/M00 Q0990 RMK WIND 500FT 08049G59KT

Čas: 03:02 (01:02 UTC)


TAF: chybějící

Stav a předpovědi počasí z více než 4 000 letišť (zprávy METAR a TAF).

Červené a žluté tečky na mapě představují dostupné meteorologické stanice.

Když kurzor umístíte na tečku, zobrazí se název stanice.

Pak kliknutím zobrazíte stav a předpověď počasí.

Chcete-li změnit mapu, kliknutím na zelené tlačítko se znaménkem +mapu přiblížíte, kliknutím na zelené tlačítko se znaménkem – mapu oddálíte a kliknutím na zelené šipky přejdete na sousední mapy.


METAR-TAF: